createdAt,value
2019-03-06T00:02:18.268Z,7.90
2019-03-06T00:04:48.602Z,7.90
2019-03-06T00:07:18.936Z,7.90
2019-03-06T00:09:49.273Z,7.90
2019-03-06T00:12:19.610Z,7.90
2019-03-06T00:15:09.345Z,7.90
2019-03-06T00:17:39.686Z,7.90
2019-03-06T00:20:10.021Z,8.00
2019-03-06T00:22:40.356Z,8.00
2019-03-06T00:25:10.756Z,8.00
2019-03-06T00:27:41.094Z,8.00
2019-03-06T00:30:18.071Z,7.90
2019-03-06T00:32:51.097Z,7.90
2019-03-06T00:35:28.835Z,7.90
2019-03-06T00:37:59.175Z,7.90
2019-03-06T00:40:40.006Z,7.90
2019-03-06T00:43:10.356Z,7.90
2019-03-06T00:45:40.696Z,7.90
2019-03-06T00:48:11.033Z,7.90
2019-03-06T00:50:41.362Z,7.90
2019-03-06T00:53:11.703Z,7.90
2019-03-06T00:55:42.045Z,7.90
2019-03-06T00:58:12.382Z,7.90
2019-03-06T01:00:42.722Z,7.90
2019-03-06T01:03:13.228Z,7.90
2019-03-06T01:05:43.573Z,7.90
2019-03-06T01:08:13.900Z,7.90
2019-03-06T01:10:44.233Z,7.90
2019-03-06T01:13:16.286Z,7.90
2019-03-06T01:15:47.681Z,7.90
2019-03-06T01:18:18.024Z,7.90
2019-03-06T01:20:48.362Z,7.90
2019-03-06T01:23:18.707Z,7.90
2019-03-06T01:25:49.033Z,7.90
2019-03-06T01:28:19.380Z,7.90
2019-03-06T01:30:49.889Z,7.90
2019-03-06T01:36:33.288Z,8.00
2019-03-06T01:39:06.740Z,8.00
2019-03-06T01:41:39.497Z,8.00
2019-03-06T01:44:14.151Z,8.00
2019-03-06T01:46:44.491Z,8.00
2019-03-06T01:49:14.829Z,8.00
2019-03-06T01:51:45.167Z,8.10
2019-03-06T01:54:15.504Z,8.10
2019-03-06T01:56:45.838Z,8.10
2019-03-06T01:59:16.192Z,8.10
2019-03-06T02:01:47.087Z,8.10
2019-03-06T02:04:17.413Z,8.10
2019-03-06T02:06:47.745Z,8.10
2019-03-06T02:09:20.762Z,8.10
2019-03-06T02:11:51.105Z,8.10
2019-03-06T02:14:21.523Z,8.10
2019-03-06T02:16:51.874Z,8.10
2019-03-06T02:19:22.312Z,8.10
2019-03-06T02:21:52.646Z,8.10
2019-03-06T02:24:24.339Z,8.10
2019-03-06T02:26:54.676Z,8.10
2019-03-06T02:29:26.093Z,8.10
2019-03-06T02:31:56.436Z,8.10
2019-03-06T02:34:26.779Z,8.10
2019-03-06T02:36:57.410Z,8.10
2019-03-06T02:39:27.762Z,8.10
2019-03-06T02:41:58.111Z,8.10
2019-03-06T02:44:28.438Z,8.10
2019-03-06T02:46:58.773Z,8.10
2019-03-06T02:49:29.119Z,8.10
2019-03-06T02:51:59.459Z,8.10
2019-03-06T02:54:29.804Z,8.10
2019-03-06T02:57:01.295Z,8.10
2019-03-06T02:59:36.018Z,8.10
2019-03-06T03:02:10.732Z,8.10
2019-03-06T03:04:55.079Z,8.10
2019-03-06T03:07:25.497Z,8.10
2019-03-06T03:09:55.842Z,8.10
2019-03-06T03:12:26.188Z,8.10
2019-03-06T03:14:56.542Z,8.10
2019-03-06T03:17:26.875Z,8.10
2019-03-06T03:19:57.206Z,8.10
2019-03-06T03:22:27.540Z,8.10
2019-03-06T03:24:57.894Z,8.20
2019-03-06T03:27:28.250Z,8.10
2019-03-06T03:29:58.590Z,8.10
2019-03-06T03:32:28.944Z,8.20
2019-03-06T03:34:59.296Z,8.20
2019-03-06T03:37:29.629Z,8.20
2019-03-06T03:40:00.020Z,8.20
2019-03-06T03:42:30.834Z,8.20
2019-03-06T03:45:01.180Z,8.20
2019-03-06T03:47:31.523Z,8.20
2019-03-06T03:50:01.863Z,8.20
2019-03-06T03:52:32.200Z,8.20
2019-03-06T03:55:23.405Z,8.30
2019-03-06T03:57:53.739Z,8.30
2019-03-06T04:00:24.621Z,8.30
2019-03-06T04:02:55.300Z,8.30
2019-03-06T04:05:25.643Z,8.30
2019-03-06T04:07:55.984Z,8.30
2019-03-06T04:10:26.321Z,8.30
2019-03-06T04:12:56.649Z,8.30
2019-03-06T04:15:27.002Z,8.30
2019-03-06T04:17:57.340Z,8.30
2019-03-06T04:20:27.692Z,8.30
2019-03-06T04:22:58.021Z,8.30
2019-03-06T04:25:28.364Z,8.30
2019-03-06T04:27:58.975Z,8.30
2019-03-06T04:30:29.333Z,8.30
2019-03-06T04:32:59.688Z,8.30
2019-03-06T04:35:30.133Z,8.30
2019-03-06T04:38:00.637Z,8.30
2019-03-06T04:40:30.995Z,8.30
2019-03-06T04:43:01.328Z,8.30
2019-03-06T04:45:31.711Z,8.30
2019-03-06T04:48:02.055Z,8.30
2019-03-06T04:50:32.396Z,8.30
2019-03-06T04:53:02.804Z,8.30
2019-03-06T04:55:33.148Z,8.30
2019-03-06T04:58:03.482Z,8.30
2019-03-06T05:00:33.837Z,8.30
2019-03-06T05:03:04.335Z,8.40
2019-03-06T05:05:34.778Z,8.30
2019-03-06T05:08:05.800Z,8.30
2019-03-06T05:10:36.243Z,8.30
2019-03-06T05:13:06.761Z,8.30
2019-03-06T05:15:37.098Z,8.40
2019-03-06T05:18:09.080Z,8.40
2019-03-06T05:20:39.431Z,8.40
2019-03-06T05:23:09.772Z,8.30
2019-03-06T05:25:40.138Z,8.40
2019-03-06T05:28:10.459Z,8.40
2019-03-06T05:30:40.788Z,8.40
2019-03-06T05:33:16.855Z,8.40
2019-03-06T05:35:54.752Z,8.40
2019-03-06T05:38:35.371Z,8.40
2019-03-06T05:41:05.719Z,8.40
2019-03-06T05:43:36.133Z,8.40
2019-03-06T05:46:06.465Z,8.40
2019-03-06T05:48:36.816Z,8.40
2019-03-06T05:51:07.139Z,8.40
2019-03-06T05:53:37.470Z,8.40
2019-03-06T05:56:07.804Z,8.40
2019-03-06T05:58:38.144Z,8.40
2019-03-06T06:01:08.487Z,8.50
2019-03-06T06:03:38.817Z,8.50
2019-03-06T06:06:10.095Z,8.50
2019-03-06T06:08:40.438Z,8.50
2019-03-06T06:11:10.764Z,8.50
2019-03-06T06:13:41.107Z,8.50
2019-03-06T06:16:11.442Z,8.50
2019-03-06T06:18:41.782Z,8.50
2019-03-06T06:21:19.737Z,8.50
2019-03-06T06:23:51.710Z,8.50
2019-03-06T06:26:22.349Z,8.60
2019-03-06T06:28:52.689Z,8.60
2019-03-06T06:31:23.026Z,8.60
2019-03-06T06:33:53.603Z,8.60
2019-03-06T06:36:23.934Z,8.60
2019-03-06T06:38:54.267Z,8.60
2019-03-06T06:41:24.612Z,8.60
2019-03-06T06:43:54.940Z,8.60
2019-03-06T06:46:25.280Z,8.60
2019-03-06T06:48:55.617Z,8.70
2019-03-06T06:51:48.611Z,8.70
2019-03-06T06:54:29.101Z,8.70
2019-03-06T06:57:06.809Z,8.80
2019-03-06T06:59:47.413Z,8.80
2019-03-06T07:02:57.285Z,8.80
2019-03-06T07:05:29.260Z,8.80
2019-03-06T07:08:01.230Z,8.80
2019-03-06T07:10:49.545Z,8.90
2019-03-06T07:13:21.523Z,8.90
2019-03-06T07:16:11.549Z,8.90
2019-03-06T07:18:59.633Z,8.90
2019-03-06T07:21:47.736Z,8.90
2019-03-06T07:24:25.306Z,8.90
2019-03-06T07:27:24.593Z,9.00
2019-03-06T07:29:56.594Z,9.00
2019-03-06T07:32:44.854Z,9.00
2019-03-06T07:36:10.176Z,9.10
2019-03-06T07:38:40.587Z,9.10
2019-03-06T07:41:26.244Z,9.20
2019-03-06T07:44:13.062Z,9.20
2019-03-06T07:46:45.384Z,9.30
2019-03-06T07:49:32.495Z,9.40
2019-03-06T07:52:07.498Z,9.40
2019-03-06T07:54:39.500Z,9.40
2019-03-06T07:57:12.919Z,9.40
2019-03-06T07:59:43.524Z,9.50
2019-03-06T08:02:23.747Z,9.50
2019-03-06T08:04:57.263Z,9.50
2019-03-06T08:07:27.604Z,9.60
2019-03-06T08:09:57.944Z,9.60
2019-03-06T08:12:29.932Z,9.60
2019-03-06T08:15:17.141Z,9.70
2019-03-06T08:17:49.117Z,9.70
2019-03-06T08:20:39.398Z,9.80
2019-03-06T08:23:11.365Z,9.80
2019-03-06T08:25:49.114Z,9.90
2019-03-06T08:28:20.711Z,10.00
2019-03-06T08:30:52.753Z,10.00
2019-03-06T08:33:23.100Z,10.10
2019-03-06T08:35:53.420Z,10.20
2019-03-06T08:38:23.767Z,10.30
2019-03-06T08:41:03.595Z,10.40
2019-03-06T08:43:26.149Z,10.50
2019-03-06T08:46:14.259Z,10.60
2019-03-06T08:48:46.234Z,10.80
2019-03-06T08:51:24.172Z,10.80
2019-03-06T08:54:05.118Z,10.90
2019-03-06T08:56:39.992Z,11.00
2019-03-06T08:59:20.864Z,10.90
2019-03-06T09:02:15.569Z,10.90
2019-03-06T09:04:43.684Z,10.80
2019-03-06T09:07:32.473Z,10.80
2019-03-06T09:10:07.372Z,10.70
2019-03-06T09:12:39.344Z,10.70
2019-03-06T09:15:21.215Z,10.70
2019-03-06T09:17:53.194Z,10.70
2019-03-06T09:20:41.412Z,10.70
2019-03-06T09:23:29.560Z,10.70
2019-03-06T09:26:17.832Z,10.70
2019-03-06T09:29:01.730Z,10.70
2019-03-06T09:31:33.702Z,10.70
2019-03-06T09:37:18.202Z,10.80
2019-03-06T09:39:59.096Z,10.80
2019-03-06T09:42:36.739Z,10.70
2019-03-06T09:45:13.089Z,10.60
2019-03-06T09:47:47.718Z,10.60
2019-03-06T09:50:22.381Z,10.60
2019-03-06T09:53:07.130Z,10.60
2019-03-06T09:55:51.113Z,10.60
2019-03-06T09:58:39.528Z,10.60
2019-03-06T10:01:14.675Z,10.70
2019-03-06T10:03:55.816Z,10.90
2019-03-06T10:06:46.383Z,10.90
2019-03-06T10:09:28.446Z,11.10
2019-03-06T10:12:00.433Z,11.20
2019-03-06T10:14:48.415Z,11.20
2019-03-06T10:17:35.667Z,11.30
2019-03-06T10:20:12.481Z,11.40
2019-03-06T10:22:42.816Z,11.50
2019-03-06T10:25:13.142Z,11.50
2019-03-06T10:27:43.495Z,11.60
2019-03-06T10:30:18.678Z,11.60
2019-03-06T10:32:48.831Z,11.70
2019-03-06T10:35:19.328Z,11.80
2019-03-06T10:37:50.039Z,11.90
2019-03-06T10:40:21.912Z,12.00
2019-03-06T10:42:52.634Z,12.10
2019-03-06T10:45:22.960Z,12.10
2019-03-06T10:47:53.374Z,12.20
2019-03-06T10:52:56.281Z,12.30
2019-03-06T10:55:26.612Z,12.30
2019-03-06T10:57:57.369Z,12.30
2019-03-06T11:00:33.028Z,12.30
2019-03-06T11:03:04.108Z,12.20
2019-03-06T11:05:35.899Z,12.10
2019-03-06T11:08:08.139Z,12.10
2019-03-06T11:10:38.549Z,12.20
2019-03-06T11:13:11.550Z,12.20
2019-03-06T11:15:42.202Z,12.20
2019-03-06T11:18:12.952Z,12.30
2019-03-06T11:20:43.797Z,12.30
2019-03-06T11:23:14.279Z,12.40
2019-03-06T11:25:45.616Z,12.30
2019-03-06T11:28:16.367Z,12.30
2019-03-06T11:30:53.825Z,12.30
2019-03-06T11:33:26.748Z,12.30
2019-03-06T11:35:59.848Z,12.30
2019-03-06T11:38:30.626Z,12.30
2019-03-06T11:41:05.346Z,12.30
2019-03-06T11:43:36.714Z,12.20
2019-03-06T11:46:09.019Z,12.30
2019-03-06T11:48:39.353Z,12.30
2019-03-06T11:51:09.753Z,12.40
2019-03-06T11:53:40.091Z,12.40
2019-03-06T11:56:10.768Z,12.50
2019-03-06T11:58:41.893Z,12.50
2019-03-06T12:01:17.652Z,12.60
2019-03-06T12:03:49.099Z,12.60
2019-03-06T12:06:20.412Z,12.70
2019-03-06T12:08:50.740Z,12.70
2019-03-06T12:11:21.251Z,12.70
2019-03-06T12:13:51.856Z,12.70
2019-03-06T12:16:22.319Z,12.70
2019-03-06T12:18:52.814Z,12.70
2019-03-06T12:21:24.110Z,12.70
2019-03-06T12:23:54.451Z,12.70
2019-03-06T12:26:24.784Z,12.70
2019-03-06T12:28:55.120Z,12.70
2019-03-06T12:31:25.447Z,12.70
2019-03-06T12:33:55.779Z,12.70
2019-03-06T12:36:26.115Z,12.70
2019-03-06T12:38:57.127Z,12.70
2019-03-06T13:02:00.914Z,12.40
2019-03-06T13:04:31.254Z,12.30
2019-03-06T13:07:01.581Z,12.20
2019-03-06T13:09:32.097Z,12.20
2019-03-06T13:12:02.437Z,12.20
2019-03-06T13:14:32.781Z,12.10
2019-03-06T13:17:03.405Z,12.10
2019-03-06T13:19:33.840Z,12.10
2019-03-06T13:22:11.149Z,12.10
2019-03-06T13:24:37.448Z,12.10
2019-03-06T13:27:07.853Z,12.10
2019-03-06T13:29:38.196Z,12.10
2019-03-06T13:32:11.749Z,12.10
2019-03-06T13:34:50.110Z,12.10
2019-03-06T13:37:14.276Z,12.10
2019-03-06T13:39:44.605Z,12.10
2019-03-06T13:42:15.003Z,12.20
2019-03-06T13:44:45.337Z,12.20
2019-03-06T13:47:15.665Z,12.30
2019-03-06T13:49:46.005Z,12.30
2019-03-06T13:52:16.611Z,12.30
2019-03-06T13:54:47.017Z,12.30
2019-03-06T13:57:17.424Z,12.30
2019-03-06T13:59:47.758Z,12.30
2019-03-06T14:02:18.244Z,12.30
2019-03-06T14:04:48.581Z,12.30
2019-03-06T14:07:18.920Z,12.30
2019-03-06T14:09:49.254Z,12.40
2019-03-06T14:12:19.598Z,12.40
2019-03-06T14:14:50.008Z,12.50
2019-03-06T14:17:26.497Z,12.50
2019-03-06T14:20:18.000Z,12.50
2019-03-06T14:23:04.665Z,12.50
2019-03-06T14:25:57.467Z,12.50
2019-03-06T14:28:39.840Z,12.50
2019-03-06T14:31:45.280Z,12.60
2019-03-06T14:37:29.579Z,12.60
2019-03-06T14:40:23.482Z,12.70
2019-03-06T14:43:11.244Z,12.70
2019-03-06T14:45:48.553Z,12.70
2019-03-06T14:49:49.901Z,12.70
2019-03-06T14:51:07.541Z,12.70
2019-03-06T14:53:42.587Z,12.70
2019-03-06T14:56:21.195Z,12.70
2019-03-06T14:59:24.032Z,12.80
2019-03-06T15:02:12.731Z,12.80
2019-03-06T15:04:57.640Z,12.90
2019-03-06T15:08:18.763Z,13.00
2019-03-06T15:11:16.836Z,13.10
2019-03-06T15:13:53.580Z,13.10
2019-03-06T15:16:35.648Z,13.10
2019-03-06T15:19:33.168Z,13.20
2019-03-06T15:22:04.893Z,13.20
2019-03-06T15:24:42.001Z,13.20
2019-03-06T15:27:22.439Z,13.20
2019-03-06T15:30:24.230Z,13.20
2019-03-06T15:33:10.052Z,13.20
2019-03-06T15:35:48.865Z,13.20
2019-03-06T15:38:29.136Z,13.10
2019-03-06T15:41:10.863Z,13.10
2019-03-06T15:43:46.549Z,13.10
2019-03-06T15:46:21.904Z,13.10
2019-03-06T15:49:02.723Z,13.10
2019-03-06T15:51:40.735Z,13.10
2019-03-06T15:54:40.805Z,13.10
2019-03-06T15:57:25.586Z,13.00
2019-03-06T16:00:17.030Z,13.00
2019-03-06T16:02:58.422Z,12.90
2019-03-06T16:06:00.348Z,12.90
2019-03-06T16:08:33.559Z,12.90
2019-03-06T16:11:15.890Z,12.80
2019-03-06T16:13:55.532Z,12.80
2019-03-06T16:16:41.504Z,12.70
2019-03-06T16:19:12.172Z,12.70
2019-03-06T16:21:46.121Z,12.60
2019-03-06T16:24:57.640Z,12.60
2019-03-06T16:27:32.012Z,12.50
2019-03-06T16:30:05.683Z,12.50
2019-03-06T16:32:49.865Z,12.40
2019-03-06T16:35:26.573Z,12.40
2019-03-06T16:38:08.655Z,12.40
2019-03-06T16:40:56.305Z,12.40
2019-03-06T16:43:50.697Z,12.40
2019-03-06T16:46:36.161Z,12.40
2019-03-06T16:52:20.010Z,12.40
2019-03-06T16:55:09.855Z,12.30
2019-03-06T16:57:57.250Z,12.30
2019-03-06T17:21:11.320Z,12.10
2019-03-06T17:23:46.661Z,12.20
2019-03-06T17:26:31.836Z,12.20
2019-03-06T17:29:12.704Z,12.20
2019-03-06T17:31:54.451Z,12.20
2019-03-06T17:34:45.048Z,12.20
2019-03-06T17:37:54.207Z,12.20
2019-03-06T17:40:22.866Z,12.30
2019-03-06T17:43:08.206Z,12.30
2019-03-06T17:46:00.450Z,12.20
2019-03-06T17:48:46.525Z,12.20
2019-03-06T17:51:36.303Z,12.20
2019-03-06T17:54:28.078Z,12.20
2019-03-06T17:57:24.668Z,12.10
2019-03-06T18:00:16.456Z,12.10
2019-03-06T18:03:13.115Z,12.00
2019-03-06T18:06:06.221Z,12.00
2019-03-06T18:08:50.801Z,12.00
2019-03-06T18:11:52.559Z,12.00
2019-03-06T18:14:36.095Z,12.00
2019-03-06T18:17:38.269Z,12.00
2019-03-06T18:20:34.931Z,12.00
2019-03-06T18:23:20.960Z,12.00
2019-03-06T18:26:13.831Z,12.00
2019-03-06T18:29:08.166Z,12.00
2019-03-06T18:31:47.161Z,12.00
2019-03-06T18:34:41.040Z,12.00
2019-03-06T18:37:19.549Z,12.00
2019-03-06T18:42:59.164Z,12.00
2019-03-06T18:45:46.599Z,12.00
2019-03-06T18:48:32.391Z,12.00
2019-03-06T18:51:27.016Z,12.00
2019-03-06T18:54:24.125Z,12.00
2019-03-06T18:57:20.243Z,12.00
2019-03-06T19:00:04.555Z,12.00
2019-03-06T19:02:48.794Z,12.00
2019-03-06T19:05:28.622Z,12.00
2019-03-06T19:08:03.482Z,11.90
2019-03-06T19:10:53.096Z,11.90
2019-03-06T19:13:46.563Z,11.90
2019-03-06T19:16:31.231Z,11.90
2019-03-06T19:19:18.851Z,11.90
2019-03-06T19:21:55.216Z,11.90
2019-03-06T19:24:46.531Z,11.90
2019-03-06T19:31:02.045Z,11.80
2019-03-06T19:33:31.573Z,11.80
2019-03-06T19:36:12.510Z,11.80
2019-03-06T19:39:00.576Z,11.80
2019-03-06T19:42:43.084Z,11.80
2019-03-06T19:48:00.402Z,11.80
2019-03-06T19:54:07.612Z,11.70
2019-03-06T19:56:43.380Z,11.70
2019-03-06T19:59:30.161Z,11.70
2019-03-06T20:02:31.970Z,11.60
2019-03-06T20:05:15.821Z,11.60
2019-03-06T20:08:06.250Z,11.60
2019-03-06T20:11:07.851Z,11.60
2019-03-06T20:13:51.012Z,11.50
2019-03-06T20:16:38.114Z,11.50
2019-03-06T20:19:26.996Z,11.50
2019-03-06T20:22:26.222Z,11.50
2019-03-06T20:25:03.776Z,11.50
2019-03-06T20:27:40.898Z,11.40
2019-03-06T20:30:39.688Z,11.40
2019-03-06T20:33:26.191Z,11.40
2019-03-06T20:36:08.851Z,11.40
2019-03-06T20:38:50.642Z,11.40
2019-03-06T20:41:27.745Z,11.40
2019-03-06T20:44:11.445Z,11.40
2019-03-06T20:46:52.214Z,11.40
2019-03-06T20:49:43.347Z,11.50
2019-03-06T20:52:26.573Z,11.50
2019-03-06T20:55:15.980Z,11.50
2019-03-06T20:58:12.206Z,11.50
2019-03-06T21:00:44.970Z,11.50
2019-03-06T21:03:27.443Z,11.60
2019-03-06T21:06:03.828Z,11.60
2019-03-06T21:08:58.729Z,11.60
2019-03-06T21:11:38.674Z,11.60
2019-03-06T21:14:19.943Z,11.60
2019-03-06T21:17:23.690Z,11.50
2019-03-06T21:20:17.121Z,11.50
2019-03-06T21:22:56.679Z,11.50
2019-03-06T21:25:58.114Z,11.40
2019-03-06T21:28:39.507Z,11.40
2019-03-06T21:31:20.463Z,11.40
2019-03-06T21:34:18.558Z,11.30
2019-03-06T21:37:00.754Z,11.30
2019-03-06T21:40:13.015Z,11.30
2019-03-06T21:42:56.310Z,11.30
2019-03-06T21:46:05.204Z,11.20
2019-03-06T21:48:59.531Z,11.20
2019-03-06T21:51:42.757Z,11.20
2019-03-06T21:54:31.676Z,11.20
2019-03-06T21:57:15.862Z,11.20
2019-03-06T21:59:58.503Z,11.20
2019-03-06T22:02:47.876Z,11.20
2019-03-06T22:05:42.673Z,11.10
2019-03-06T22:08:42.427Z,11.10
2019-03-06T22:11:27.970Z,11.10
2019-03-06T22:14:21.120Z,11.10
2019-03-06T22:17:12.518Z,11.10
2019-03-06T22:23:02.379Z,11.10
2019-03-06T22:25:54.012Z,11.00
2019-03-06T22:28:38.049Z,11.00
2019-03-06T22:31:13.951Z,11.00
2019-03-06T22:34:03.221Z,11.00
2019-03-06T22:36:50.669Z,10.90
2019-03-06T22:39:51.273Z,10.90
2019-03-06T22:42:40.240Z,10.90
2019-03-06T22:45:32.093Z,10.80
2019-03-06T22:51:33.009Z,10.70
2019-03-06T22:54:25.897Z,10.70
2019-03-06T22:57:12.278Z,10.70
2019-03-06T23:00:03.287Z,10.70
2019-03-06T23:02:46.670Z,10.80
2019-03-06T23:05:23.082Z,10.80
2019-03-06T23:11:06.758Z,10.90
2019-03-06T23:14:08.150Z,11.00
2019-03-06T23:17:08.265Z,11.00
2019-03-06T23:19:53.330Z,10.90
2019-03-06T23:22:38.593Z,11.00
2019-03-06T23:25:21.540Z,11.00
2019-03-06T23:28:06.284Z,11.10
2019-03-06T23:30:46.090Z,11.10
2019-03-06T23:33:59.413Z,11.10
2019-03-06T23:36:47.859Z,11.20
2019-03-06T23:39:32.168Z,11.20
2019-03-06T23:42:14.725Z,11.20
2019-03-06T23:45:01.353Z,11.30
2019-03-06T23:48:12.917Z,11.30
2019-03-06T23:51:04.760Z,11.40
2019-03-06T23:57:02.325Z,11.40
2019-03-06T23:59:49.749Z,11.40
